Time;durP1;ratioP1;P1;durP2;ratioP2;P2;SDS_P1;SDS_P2;PMS_P1;PMS_P2;Temp;Humidity;BMP_temperature;BMP_pressure;BME280_temperature;BME280_humidity;BME280_pressure;Samples;Min_cycle;Max_cycle;Signal;HPM_P1;HPM_P2
2022/06/11 00:01:12;;;;;;;2.67;1.92;;;22.50;99.90;;;;;;4245032;27;20241;-79
2022/06/11 00:03:14;;;;;;;2.33;1.63;;;22.50;99.90;;;;;;4248101;27;20221;-80
2022/06/11 00:05:17;;;;;;;4.25;2.35;;;22.50;99.90;;;;;;4248230;27;20266;-79
2022/06/11 00:07:23;;;;;;;2.42;1.73;;;22.50;99.90;;;;;;4227831;28;20322;-79
2022/06/11 00:09:27;;;;;;;2.40;1.80;;;22.50;99.90;;;;;;4247589;27;20236;-79
2022/06/11 00:11:30;;;;;;;3.70;1.83;;;22.50;99.90;;;;;;4247776;27;20240;-79
2022/06/11 00:13:32;;;;;;;3.60;1.90;;;22.50;99.90;;;;;;4247275;27;20213;-79
2022/06/11 00:15:37;;;;;;;3.35;1.90;;;22.50;99.90;;;;;;4247908;27;20261;-79
2022/06/11 00:17:39;;;;;;;3.00;1.90;;;22.50;99.90;;;;;;4246211;27;20213;-79
2022/06/11 00:19:43;;;;;;;2.58;1.65;;;22.50;99.90;;;;;;4247755;27;20213;-79
2022/06/11 00:21:45;;;;;;;3.05;2.03;;;22.50;99.90;;;;;;4247931;27;20224;-79
2022/06/11 00:23:48;;;;;;;3.95;2.25;;;22.50;99.90;;;;;;4247443;27;20254;-79
2022/06/11 00:25:50;;;;;;;4.80;2.35;;;22.50;99.90;;;;;;4247406;27;20648;-79
2022/06/11 00:27:53;;;;;;;4.15;2.03;;;22.50;99.90;;;;;;4247704;27;20210;-79
2022/06/11 00:29:55;;;;;;;3.75;1.70;;;22.50;99.90;;;;;;4247541;27;20617;-79
2022/06/11 00:31:59;;;;;;;3.33;2.05;;;22.50;99.90;;;;;;4247897;27;20205;-79
2022/06/11 00:34:02;;;;;;;2.95;2.10;;;22.50;99.90;;;;;;4246056;27;20217;-79
2022/06/11 00:36:06;;;;;;;2.67;1.70;;;22.50;99.90;;;;;;4246819;27;20209;-73
2022/06/11 00:38:09;;;;;;;3.20;1.90;;;22.50;99.90;;;;;;4245804;27;20365;-73
2022/06/11 00:40:15;;;;;;;3.47;2.00;;;22.50;99.90;;;;;;4245582;27;20217;-73
2022/06/11 00:42:23;;;;;;;2.58;2.05;;;22.50;99.90;;;;;;4246033;27;20294;-73
2022/06/11 00:44:26;;;;;;;3.55;2.00;;;22.50;99.90;;;;;;4245863;27;20281;-74
2022/06/11 00:46:49;;;;;;;4.10;1.83;;;22.50;99.90;;;;;;4246164;27;20265;-74
2022/06/11 00:48:53;;;;;;;3.10;1.77;;;22.50;99.90;;;;;;4243229;27;20266;-74
2022/06/11 00:50:59;;;;;;;2.30;1.77;;;22.50;99.90;;;;;;4244070;27;20275;-74
2022/06/11 00:53:02;;;;;;;3.05;1.85;;;22.50;99.90;;;;;;4244986;27;20217;-74
2022/06/11 00:55:10;;;;;;;3.58;1.75;;;22.50;99.90;;;;;;4245850;27;20217;-74
2022/06/11 00:57:14;;;;;;;3.75;1.83;;;22.50;99.90;;;;;;4244609;27;20224;-74
2022/06/11 00:59:21;;;;;;;2.95;1.60;;;22.50;99.90;;;;;;4245360;27;20262;-74
2022/06/11 01:01:25;;;;;;;2.72;2.00;;;22.50;99.90;;;;;;4245646;27;20637;-74
2022/06/11 01:03:32;;;;;;;3.30;1.77;;;22.50;99.90;;;;;;4245352;27;20713;-74
2022/06/11 01:05:38;;;;;;;2.53;2.08;;;22.40;99.90;;;;;;4246005;27;20213;-73
2022/06/11 01:08:14;;;;;;;3.30;2.00;;;22.40;99.90;;;;;;4245843;27;20225;-74
2022/06/11 01:10:40;;;;;;;3.95;2.45;;;22.40;99.90;;;;;;4236236;27;20232;-73
2022/06/11 01:12:58;;;;;;;2.60;1.88;;;22.40;99.90;;;;;;4244892;27;20778;-74
2022/06/11 01:15:08;;;;;;;4.32;2.20;;;22.50;99.90;;;;;;4241750;27;20274;-73
2022/06/11 01:17:26;;;;;;;4.38;1.98;;;22.50;99.90;;;;;;4245636;27;20221;-74
2022/06/11 01:19:58;;;;;;;4.90;2.08;;;22.40;99.90;;;;;;4245429;27;20634;-73
2022/06/11 01:22:10;;;;;;;4.18;2.28;;;22.40;99.90;;;;;;4244819;27;20668;-73
2022/06/11 01:24:41;;;;;;;2.67;1.70;;;22.50;99.90;;;;;;4241452;27;20217;-74
2022/06/11 01:27:14;;;;;;;3.75;2.08;;;22.40;99.90;;;;;;4243321;27;20217;-74
2022/06/11 01:29:47;;;;;;;3.55;1.92;;;22.50;99.90;;;;;;4244744;27;20213;-74
2022/06/11 01:31:55;;;;;;;3.67;1.90;;;22.40;99.90;;;;;;4242126;27;20249;-73
2022/06/11 01:34:05;;;;;;;3.67;2.00;;;22.40;99.90;;;;;;4245168;27;20629;-79
2022/06/11 01:36:14;;;;;;;4.25;2.22;;;22.40;99.90;;;;;;4246828;27;20261;-79
2022/06/11 01:38:22;;;;;;;3.63;2.40;;;22.40;99.90;;;;;;4246715;27;20213;-80
2022/06/11 01:40:37;;;;;;;2.50;1.80;;;22.40;99.90;;;;;;4244971;27;20265;-79
2022/06/11 01:42:43;;;;;;;4.95;2.03;;;22.40;99.90;;;;;;4243517;27;20232;-79
2022/06/11 01:44:58;;;;;;;3.10;1.90;;;22.40;99.90;;;;;;4246469;27;20282;-79
2022/06/11 01:47:03;;;;;;;3.63;2.05;;;22.40;99.90;;;;;;4243658;27;20209;-80
2022/06/11 01:49:28;;;;;;;2.80;1.80;;;22.40;99.90;;;;;;4244234;27;20212;-80
2022/06/11 01:51:47;;;;;;;3.78;2.17;;;22.40;99.90;;;;;;4245006;27;20266;-79
2022/06/11 01:54:18;;;;;;;3.17;1.92;;;22.40;99.90;;;;;;4243913;27;20630;-79
2022/06/11 01:56:34;;;;;;;3.33;1.80;;;22.40;99.90;;;;;;4246302;27;20665;-79
2022/06/11 01:58:50;;;;;;;2.22;1.77;;;22.40;99.90;;;;;;4243230;27;20357;-80
2022/06/11 02:01:01;;;;;;;2.97;1.98;;;22.40;99.90;;;;;;4243432;27;20224;-80
2022/06/11 02:03:22;;;;;;;2.25;1.85;;;22.40;99.90;;;;;;4244320;27;20232;-80
2022/06/11 02:05:35;;;;;;;5.25;2.03;;;22.40;99.90;;;;;;4243375;27;20228;-79
2022/06/11 02:07:46;;;;;;;3.08;1.98;;;22.40;99.90;;;;;;4245513;27;20969;-79
2022/06/11 02:09:58;;;;;;;4.95;2.08;;;22.40;99.90;;;;;;4244775;27;20333;-80
2022/06/11 02:12:11;;;;;;;2.17;1.83;;;22.40;99.90;;;;;;4243968;27;20298;-79
2022/06/11 02:14:18;;;;;;;3.33;1.77;;;22.40;99.90;;;;;;4245318;27;20213;-79
2022/06/11 02:16:26;;;;;;;2.70;1.77;;;22.40;99.90;;;;;;4242522;27;20271;-80
2022/06/11 02:18:29;;;;;;;2.72;2.03;;;22.40;99.90;;;;;;4244833;27;20255;-79
2022/06/11 02:20:40;;;;;;;2.22;1.65;;;22.40;99.90;;;;;;4243641;27;21772;-80
2022/06/11 02:22:48;;;;;;;3.28;1.75;;;22.40;99.90;;;;;;4242252;27;20756;-79
2022/06/11 02:24:54;;;;;;;4.25;2.42;;;22.40;99.90;;;;;;4243776;27;20261;-79
2022/06/11 02:27:02;;;;;;;4.00;2.05;;;22.30;99.90;;;;;;4243493;27;20217;-79
2022/06/11 02:29:07;;;;;;;3.67;2.10;;;22.40;99.90;;;;;;4244774;27;20220;-79
2022/06/11 02:31:11;;;;;;;2.65;1.80;;;22.30;99.90;;;;;;4245057;27;20262;-80
2022/06/11 02:33:15;;;;;;;2.42;1.80;;;22.40;99.90;;;;;;4242127;27;20329;-79
2022/06/11 02:35:27;;;;;;;3.33;1.90;;;22.40;99.90;;;;;;4244542;27;20268;-79
2022/06/11 02:37:33;;;;;;;3.22;1.88;;;22.40;99.90;;;;;;4242726;27;21039;-79
2022/06/11 02:39:41;;;;;;;2.00;1.80;;;22.30;99.90;;;;;;4244481;27;20262;-79
2022/06/11 02:41:43;;;;;;;4.25;1.90;;;22.40;99.90;;;;;;4244536;27;20622;-80
2022/06/11 02:43:46;;;;;;;2.03;1.80;;;22.30;99.90;;;;;;4244399;27;20289;-79
2022/06/11 02:45:49;;;;;;;2.78;1.85;;;22.40;99.90;;;;;;4243445;27;20722;-79
2022/06/11 02:47:53;;;;;;;3.08;1.73;;;22.40;99.90;;;;;;4240589;27;20218;-79
2022/06/11 02:49:55;;;;;;;2.45;2.00;;;22.30;99.90;;;;;;4244115;28;20763;-80
2022/06/11 02:52:00;;;;;;;2.83;1.90;;;22.40;99.90;;;;;;4244205;28;20262;-79
2022/06/11 02:54:03;;;;;;;4.75;2.20;;;22.30;99.90;;;;;;4244469;28;20301;-80
2022/06/11 02:56:07;;;;;;;2.13;1.70;;;22.40;99.90;;;;;;4243684;27;20269;-79
2022/06/11 02:58:11;;;;;;;4.38;1.95;;;22.30;99.90;;;;;;4244534;28;20722;-79
2022/06/11 03:00:18;;;;;;;2.47;2.20;;;22.40;99.90;;;;;;4244252;27;20900;-79
2022/06/11 03:02:22;;;;;;;3.13;2.03;;;22.30;99.90;;;;;;4245385;28;20221;-80
2022/06/11 03:04:27;;;;;;;2.20;2.00;;;22.30;99.90;;;;;;4245347;27;20221;-79
2022/06/11 03:06:30;;;;;;;2.80;2.13;;;22.30;99.90;;;;;;4245197;28;20599;-80
2022/06/11 03:08:33;;;;;;;2.78;2.03;;;22.30;99.90;;;;;;4242061;27;20213;-79
2022/06/11 03:10:37;;;;;;;2.17;1.92;;;22.30;99.90;;;;;;4243762;28;20293;-80
2022/06/11 03:12:41;;;;;;;3.88;2.08;;;22.30;99.90;;;;;;4244153;27;20722;-79
2022/06/11 03:14:44;;;;;;;2.97;1.70;;;22.30;99.90;;;;;;4245354;28;20208;-79
2022/06/11 03:16:47;;;;;;;2.92;2.10;;;22.30;99.90;;;;;;4245219;27;20262;-80
2022/06/11 03:18:50;;;;;;;2.47;1.80;;;22.30;99.90;;;;;;4245135;28;20239;-79
2022/06/11 03:20:52;;;;;;;3.17;1.75;;;22.30;99.90;;;;;;4244454;27;20220;-79
2022/06/11 03:22:55;;;;;;;2.28;1.65;;;22.30;99.90;;;;;;4243238;28;20233;-79
2022/06/11 03:24:57;;;;;;;2.22;1.70;;;22.30;99.90;;;;;;4241224;28;20262;-79
2022/06/11 03:26:59;;;;;;;2.58;1.83;;;22.30;99.90;;;;;;4245064;28;20221;-79
2022/06/11 03:29:03;;;;;;;3.90;1.77;;;22.30;99.90;;;;;;4244683;28;20629;-79
2022/06/11 03:31:07;;;;;;;3.28;2.00;;;22.30;99.90;;;;;;4242538;28;20225;-79
2022/06/11 03:33:09;;;;;;;4.13;2.08;;;22.30;99.90;;;;;;4244467;28;20677;-80
2022/06/11 03:35:13;;;;;;;2.38;1.70;;;22.30;99.90;;;;;;4243688;28;20217;-79
2022/06/11 03:37:15;;;;;;;2.47;1.75;;;22.30;99.90;;;;;;4244441;28;20723;-79
2022/06/11 03:39:18;;;;;;;2.67;1.92;;;22.30;99.90;;;;;;4243927;28;20229;-80
2022/06/11 03:41:22;;;;;;;2.10;1.75;;;22.30;99.90;;;;;;4242548;28;20221;-79
2022/06/11 03:43:24;;;;;;;2.60;1.73;;;22.30;99.90;;;;;;4244458;28;20595;-80
2022/06/11 03:45:29;;;;;;;3.13;1.90;;;22.30;99.90;;;;;;4243782;28;20278;-79
2022/06/11 03:47:31;;;;;;;3.70;1.83;;;22.30;99.90;;;;;;4240203;28;20205;-80
2022/06/11 03:49:34;;;;;;;3.25;1.92;;;22.30;99.90;;;;;;4244025;28;20214;-79
2022/06/11 03:51:36;;;;;;;3.28;2.10;;;22.30;99.90;;;;;;4243900;28;20221;-79
2022/06/11 03:53:40;;;;;;;4.13;1.88;;;22.30;99.90;;;;;;4244061;27;20666;-79
2022/06/11 03:55:44;;;;;;;3.58;1.80;;;22.30;99.90;;;;;;4247451;27;20262;-79
2022/06/11 03:57:47;;;;;;;3.20;1.88;;;22.30;99.90;;;;;;4247171;27;20254;-80
2022/06/11 03:59:49;;;;;;;1.98;1.77;;;22.30;99.90;;;;;;4245725;27;20213;-80
2022/06/11 04:01:53;;;;;;;4.72;2.38;;;22.30;99.90;;;;;;4247023;27;20262;-79
2022/06/11 04:03:58;;;;;;;3.00;1.90;;;22.30;99.90;;;;;;4245968;27;20274;-79
2022/06/11 04:06:01;;;;;;;2.55;1.80;;;22.30;99.90;;;;;;4245078;27;20254;-79
2022/06/11 04:08:05;;;;;;;2.90;1.63;;;22.30;99.90;;;;;;4247255;27;20644;-79
2022/06/11 04:10:10;;;;;;;2.65;1.90;;;22.30;99.90;;;;;;4246873;27;20224;-79
2022/06/11 04:12:15;;;;;;;2.90;2.00;;;22.30;99.90;;;;;;4246755;27;20217;-79
2022/06/11 04:14:19;;;;;;;2.35;1.83;;;22.30;99.90;;;;;;4247322;27;20283;-79
2022/06/11 04:16:25;;;;;;;3.42;2.20;;;22.30;99.90;;;;;;4246473;27;20221;-79
2022/06/11 04:18:32;;;;;;;2.42;1.90;;;22.30;99.90;;;;;;4246690;27;20266;-80
2022/06/11 04:20:35;;;;;;;2.25;1.67;;;22.30;99.90;;;;;;4245313;27;20212;-79
2022/06/11 04:22:38;;;;;;;3.45;1.90;;;22.30;99.90;;;;;;4246348;27;20611;-79
2022/06/11 04:24:41;;;;;;;2.65;1.90;;;22.20;99.90;;;;;;4245960;27;20281;-80
2022/06/11 04:26:45;;;;;;;2.58;1.90;;;22.30;99.90;;;;;;4246438;27;20282;-79
2022/06/11 04:28:48;;;;;;;3.17;2.00;;;22.30;99.90;;;;;;4246986;27;20318;-79
2022/06/11 04:30:51;;;;;;;2.97;1.95;;;22.30;99.90;;;;;;4246459;27;20216;-79
2022/06/11 04:32:53;;;;;;;3.55;2.17;;;22.20;99.90;;;;;;4245272;27;20254;-79
2022/06/11 04:34:57;;;;;;;2.53;1.85;;;22.30;99.90;;;;;;4246160;27;20257;-79
2022/06/11 04:37:00;;;;;;;3.00;2.00;;;22.20;99.90;;;;;;4246097;27;20217;-79
2022/06/11 04:39:03;;;;;;;2.15;1.55;;;22.20;99.90;;;;;;4244736;27;20633;-79
2022/06/11 04:41:05;;;;;;;3.15;1.92;;;22.30;99.90;;;;;;4246277;27;20217;-79
2022/06/11 04:43:07;;;;;;;2.65;1.80;;;22.30;99.90;;;;;;4246561;27;20209;-80
2022/06/11 04:45:12;;;;;;;3.50;2.10;;;22.20;99.90;;;;;;4246456;27;20217;-79
2022/06/11 04:47:17;;;;;;;2.65;1.85;;;22.30;99.90;;;;;;4246168;27;20220;-80
2022/06/11 04:49:21;;;;;;;2.15;1.60;;;22.20;99.90;;;;;;4244052;27;20217;-79
2022/06/11 04:51:24;;;;;;;3.70;1.88;;;22.20;99.90;;;;;;4245339;27;20216;-80
2022/06/11 04:53:27;;;;;;;3.97;2.00;;;22.30;99.90;;;;;;4245136;27;20217;-79
2022/06/11 04:55:29;;;;;;;2.35;1.95;;;22.30;99.90;;;;;;4245301;27;20262;-79
2022/06/11 04:57:32;;;;;;;2.78;1.80;;;22.30;99.90;;;;;;4246098;27;20270;-79
2022/06/11 04:59:34;;;;;;;2.85;2.03;;;22.20;99.90;;;;;;4246506;27;20258;-80
2022/06/11 05:01:37;;;;;;;3.58;1.90;;;22.20;99.90;;;;;;4245922;27;20266;-79
2022/06/11 05:03:40;;;;;;;2.75;1.98;;;22.30;99.90;;;;;;4245615;27;20209;-80
2022/06/11 05:05:43;;;;;;;3.03;1.90;;;22.30;99.90;;;;;;4243677;27;20221;-79
2022/06/11 05:07:48;;;;;;;1.92;1.73;;;22.30;99.90;;;;;;4244854;27;20266;-80
2022/06/11 05:09:51;;;;;;;2.53;1.88;;;22.30;99.90;;;;;;4245900;27;20277;-79
2022/06/11 05:11:54;;;;;;;2.70;1.70;;;22.20;99.90;;;;;;4244709;27;20345;-79
2022/06/11 05:13:56;;;;;;;4.47;1.95;;;22.30;99.90;;;;;;4245645;27;20201;-79
2022/06/11 05:15:59;;;;;;;3.42;1.85;;;22.20;99.90;;;;;;4246219;27;20246;-80
2022/06/11 05:18:02;;;;;;;2.47;1.88;;;22.30;99.90;;;;;;4245480;27;20216;-79
2022/06/11 05:20:05;;;;;;;2.35;2.03;;;22.20;99.90;;;;;;4243888;27;20209;-80
2022/06/11 05:22:08;;;;;;;2.63;1.80;;;22.30;99.90;;;;;;4246110;27;20262;-79
2022/06/11 05:24:11;;;;;;;2.40;2.05;;;22.20;99.90;;;;;;4245144;27;20278;-79
2022/06/11 05:26:16;;;;;;;2.55;1.95;;;22.20;99.90;;;;;;4245683;27;20721;-80
2022/06/11 05:28:21;;;;;;;2.55;1.77;;;22.20;99.90;;;;;;4245744;27;20621;-79
2022/06/11 05:30:26;;;;;;;2.78;1.70;;;22.20;99.90;;;;;;4243050;27;20974;-79
2022/06/11 05:32:31;;;;;;;3.10;1.90;;;22.20;99.90;;;;;;4245535;27;20663;-80
2022/06/11 05:34:33;;;;;;;2.67;1.88;;;22.30;99.90;;;;;;4244054;27;20214;-80
2022/06/11 05:36:36;;;;;;;2.90;1.70;;;22.20;99.90;;;;;;4244591;27;20261;-79
2022/06/11 05:38:38;;;;;;;4.25;2.20;;;22.20;99.90;;;;;;4245248;27;20261;-79
2022/06/11 05:40:44;;;;;;;2.95;1.67;;;22.20;99.90;;;;;;4243499;27;20276;-79
2022/06/11 05:42:48;;;;;;;2.80;1.67;;;22.20;99.90;;;;;;4245181;27;20240;-80
2022/06/11 05:44:51;;;;;;;3.08;1.83;;;22.20;99.90;;;;;;4244993;27;20285;-79
2022/06/11 05:46:54;;;;;;;3.60;2.08;;;22.30;99.90;;;;;;4242591;27;20241;-79
2022/06/11 05:49:00;;;;;;;3.05;1.90;;;22.20;99.90;;;;;;4243998;27;20213;-79
2022/06/11 05:51:04;;;;;;;2.55;1.60;;;22.20;99.90;;;;;;4242961;27;20217;-81
2022/06/11 05:53:08;;;;;;;3.60;1.90;;;22.20;99.90;;;;;;4244239;27;20250;-80
2022/06/11 05:55:11;;;;;;;2.60;1.88;;;22.20;99.90;;;;;;4244880;27;20278;-80
2022/06/11 05:57:20;;;;;;;2.50;1.80;;;22.20;99.90;;;;;;4244349;27;20306;-79
2022/06/11 05:59:26;;;;;;;3.83;1.90;;;22.30;99.90;;;;;;4244025;27;20220;-80
2022/06/11 06:01:38;;;;;;;3.47;1.80;;;22.30;99.90;;;;;;4245304;27;20259;-79
2022/06/11 06:03:40;;;;;;;3.13;1.55;;;22.20;99.90;;;;;;4240880;27;20217;-80
2022/06/11 06:05:42;;;;;;;3.42;1.80;;;22.20;99.90;;;;;;4244806;27;20233;-79
2022/06/11 06:07:45;;;;;;;3.20;1.80;;;22.20;99.90;;;;;;4244161;27;20201;-79
2022/06/11 06:09:47;;;;;;;2.53;1.75;;;22.20;99.90;;;;;;4244450;27;20236;-79
2022/06/11 06:11:50;;;;;;;2.53;1.80;;;22.20;99.90;;;;;;4244502;27;20859;-79
2022/06/11 06:13:56;;;;;;;3.03;1.88;;;22.20;99.90;;;;;;4244855;27;20269;-79
2022/06/11 06:15:58;;;;;;;3.70;1.40;;;22.20;99.90;;;;;;4244629;27;20274;-79
2022/06/11 06:18:01;;;;;;;3.08;1.70;;;22.20;99.90;;;;;;4244318;27;20265;-79
2022/06/11 06:20:04;;;;;;;4.28;2.17;;;22.30;99.90;;;;;;4242988;27;20210;-79
2022/06/11 06:22:06;;;;;;;2.55;1.67;;;22.20;99.90;;;;;;4244811;27;20217;-79
2022/06/11 06:24:08;;;;;;;3.47;1.85;;;22.20;99.90;;;;;;4244945;27;20255;-80
2022/06/11 06:26:11;;;;;;;2.63;1.90;;;22.20;99.90;;;;;;4244465;27;20639;-79
2022/06/11 06:28:13;;;;;;;5.05;2.03;;;22.20;99.90;;;;;;4244986;27;20213;-79
2022/06/11 06:30:17;;;;;;;4.28;2.00;;;22.20;99.90;;;;;;4244905;27;20213;-79
2022/06/11 06:32:19;;;;;;;3.33;1.60;;;22.20;99.90;;;;;;4243851;27;20221;-79
2022/06/11 06:34:22;;;;;;;2.78;1.90;;;22.20;99.90;;;;;;4244709;27;20233;-79
2022/06/11 06:36:24;;;;;;;2.45;1.48;;;22.20;99.90;;;;;;4245200;27;20270;-79
2022/06/11 06:38:27;;;;;;;2.80;1.73;;;22.20;99.90;;;;;;4243675;27;20217;-79
2022/06/11 06:40:29;;;;;;;2.20;1.70;;;22.20;99.90;;;;;;4244728;27;20216;-79
2022/06/11 06:42:32;;;;;;;3.38;1.85;;;22.30;99.90;;;;;;4244549;27;20528;-79
2022/06/11 06:44:35;;;;;;;3.20;2.00;;;22.20;99.90;;;;;;4244344;27;21345;-79
2022/06/11 06:46:38;;;;;;;3.25;1.88;;;22.20;99.90;;;;;;4243596;27;20274;-82
2022/06/11 06:48:42;;;;;;;2.22;1.65;;;22.20;99.90;;;;;;4240201;27;20221;-79
2022/06/11 06:50:44;;;;;;;2.83;1.73;;;22.20;99.90;;;;;;4243533;27;20729;-80
2022/06/11 06:52:47;;;;;;;3.72;1.95;;;22.30;99.90;;;;;;4244303;27;20209;-80
2022/06/11 06:54:49;;;;;;;3.00;1.90;;;22.30;99.90;;;;;;4243809;27;20213;-79
2022/06/11 06:56:51;;;;;;;3.40;1.77;;;22.30;99.90;;;;;;4244421;28;20246;-79
2022/06/11 06:58:54;;;;;;;3.65;1.80;;;22.30;99.90;;;;;;4244510;28;20669;-79
2022/06/11 07:00:56;;;;;;;3.00;2.10;;;22.30;99.90;;;;;;4244714;28;20710;-79
2022/06/11 07:03:00;;;;;;;2.90;1.95;;;22.30;99.90;;;;;;4244266;28;20673;-79
2022/06/11 07:05:02;;;;;;;3.10;1.90;;;22.30;99.90;;;;;;4242409;28;20293;-79
2022/06/11 07:07:05;;;;;;;4.38;1.88;;;22.30;99.90;;;;;;4244202;28;20265;-79
2022/06/11 07:09:08;;;;;;;4.60;1.75;;;22.30;99.90;;;;;;4244335;28;20236;-79
2022/06/11 07:11:10;;;;;;;2.22;1.52;;;22.30;99.90;;;;;;4243827;28;20912;-80
2022/06/11 07:13:13;;;;;;;3.30;1.80;;;22.30;99.90;;;;;;4244467;28;20262;-79
2022/06/11 07:15:15;;;;;;;3.15;1.80;;;22.40;99.90;;;;;;4244126;28;20217;-80
2022/06/11 07:17:19;;;;;;;2.33;1.58;;;22.40;99.90;;;;;;4243952;28;20266;-80
2022/06/11 07:19:26;;;;;;;2.95;1.70;;;22.40;99.90;;;;;;4242567;28;20282;-79
2022/06/11 07:21:33;;;;;;;3.65;1.80;;;22.40;99.90;;;;;;4242931;28;20221;-79
2022/06/11 07:23:39;;;;;;;3.60;1.80;;;22.40;99.90;;;;;;4242899;28;20209;-79
2022/06/11 07:25:44;;;;;;;3.33;1.90;;;22.50;99.90;;;;;;4244137;28;20232;-79
2022/06/11 07:27:51;;;;;;;4.28;1.90;;;22.40;99.90;;;;;;4243148;28;20213;-79
2022/06/11 07:29:57;;;;;;;2.30;1.60;;;22.50;99.90;;;;;;4245994;27;20216;-79
2022/06/11 07:32:04;;;;;;;4.90;2.05;;;22.50;99.90;;;;;;4247092;27;20376;-79
2022/06/11 07:34:07;;;;;;;3.58;1.90;;;22.50;99.90;;;;;;4247259;27;20263;-80
2022/06/11 07:36:11;;;;;;;3.08;1.70;;;22.50;99.90;;;;;;4247370;27;20246;-79
2022/06/11 07:38:15;;;;;;;2.05;1.52;;;22.50;99.90;;;;;;4246926;27;20213;-79
2022/06/11 07:40:18;;;;;;;4.72;2.00;;;22.50;99.90;;;;;;4244493;27;20573;-79
2022/06/11 07:42:20;;;;;;;3.95;2.10;;;22.50;99.90;;;;;;4247049;27;20213;-79
2022/06/11 07:44:23;;;;;;;3.78;2.00;;;22.50;99.90;;;;;;4244894;27;20221;-79
2022/06/11 07:46:25;;;;;;;2.83;1.88;;;22.50;99.90;;;;;;4245732;27;20237;-79
2022/06/11 07:48:27;;;;;;;3.10;1.70;;;22.50;99.90;;;;;;4247550;27;20262;-79
2022/06/11 07:50:31;;;;;;;3.35;1.52;;;22.50;99.90;;;;;;4247014;27;20278;-80
2022/06/11 07:52:35;;;;;;;2.55;1.92;;;22.50;99.90;;;;;;4246949;27;20247;-79
2022/06/11 07:54:37;;;;;;;3.30;2.00;;;22.50;99.90;;;;;;4246932;27;20209;-79
2022/06/11 07:56:40;;;;;;;2.70;1.75;;;22.50;99.90;;;;;;4244689;27;20312;-79
2022/06/11 07:58:42;;;;;;;3.75;2.10;;;22.50;99.90;;;;;;4246931;27;20213;-79
2022/06/11 08:00:48;;;;;;;2.83;1.75;;;22.50;99.90;;;;;;4246670;27;20621;-79
2022/06/11 08:02:50;;;;;;;3.22;1.80;;;22.50;99.90;;;;;;4245599;27;20219;-79
2022/06/11 08:04:53;;;;;;;5.10;1.90;;;22.60;99.90;;;;;;4247218;27;20547;-79
2022/06/11 08:06:55;;;;;;;3.20;1.83;;;22.60;99.90;;;;;;4245366;27;20688;-79
2022/06/11 08:08:59;;;;;;;4.20;1.92;;;22.60;99.90;;;;;;4246591;27;20262;-79
2022/06/11 08:11:02;;;;;;;4.70;1.67;;;22.60;99.90;;;;;;4246679;27;20245;-79
2022/06/11 08:13:05;;;;;;;3.80;2.00;;;22.60;99.90;;;;;;4245806;27;20228;-79
2022/06/11 08:15:09;;;;;;;3.70;1.92;;;22.60;99.90;;;;;;4246622;27;20213;-80
2022/06/11 08:17:12;;;;;;;4.45;2.00;;;22.60;99.90;;;;;;4246900;27;20592;-79
2022/06/11 08:19:14;;;;;;;4.38;2.00;;;22.60;99.90;;;;;;4245355;27;20229;-79
2022/06/11 08:21:16;;;;;;;4.82;1.98;;;22.60;99.90;;;;;;4246988;27;20734;-80
2022/06/11 08:23:19;;;;;;;4.22;1.80;;;22.60;99.90;;;;;;4245497;27;20262;-79
2022/06/11 08:25:24;;;;;;;6.53;1.92;;;22.70;99.90;;;;;;4246848;27;20213;-79
2022/06/11 08:27:26;;;;;;;3.35;1.73;;;22.70;99.90;;;;;;4245195;27;20672;-80
2022/06/11 08:29:28;;;;;;;3.33;1.77;;;22.70;99.90;;;;;;4246702;27;20221;-79
2022/06/11 08:31:30;;;;;;;3.65;1.90;;;22.70;99.90;;;;;;4246253;27;20221;-79
2022/06/11 08:33:33;;;;;;;4.25;2.28;;;22.70;99.90;;;;;;4246855;27;20221;-80
2022/06/11 08:35:36;;;;;;;3.22;1.95;;;22.80;99.90;;;;;;4246402;27;20243;-80
2022/06/11 08:37:39;;;;;;;4.00;1.70;;;22.80;99.90;;;;;;4246760;27;20213;-79
2022/06/11 08:39:41;;;;;;;5.05;1.85;;;22.80;99.90;;;;;;4246501;27;20213;-80
2022/06/11 08:41:45;;;;;;;4.05;2.33;;;22.80;99.90;;;;;;4245434;27;20258;-79
2022/06/11 08:43:57;;;;;;;4.95;2.08;;;22.80;99.90;;;;;;4246443;27;20217;-79
2022/06/11 08:46:04;;;;;;;3.50;1.90;;;22.80;99.90;;;;;;4243933;27;20232;-79
2022/06/11 08:48:15;;;;;;;5.20;2.20;;;22.80;99.90;;;;;;4244144;27;20611;-79
2022/06/11 08:50:20;;;;;;;3.97;1.95;;;22.80;99.90;;;;;;4246156;27;20222;-81
2022/06/11 08:52:29;;;;;;;3.20;1.67;;;22.80;99.90;;;;;;4246430;27;20217;-79
2022/06/11 08:54:36;;;;;;;2.53;1.80;;;22.80;99.90;;;;;;4244667;27;20266;-79
2022/06/11 08:56:44;;;;;;;4.55;1.90;;;22.80;99.90;;;;;;4246641;27;20213;-79
2022/06/11 08:59:05;;;;;;;2.65;1.88;;;22.80;99.90;;;;;;4246227;27;20224;-73
2022/06/11 09:01:15;;;;;;;3.47;1.88;;;22.80;99.90;;;;;;4245230;27;20289;-74
2022/06/11 09:03:31;;;;;;;3.45;1.90;;;22.80;99.90;;;;;;4244678;27;20221;-73
2022/06/11 09:05:44;;;;;;;4.10;1.80;;;22.80;99.90;;;;;;4241960;27;20205;-73
2022/06/11 09:08:02;;;;;;;4.32;2.15;;;22.80;99.90;;;;;;4244545;27;20951;-74
2022/06/11 09:10:20;;;;;;;5.13;1.90;;;22.80;99.90;;;;;;4243881;27;20244;-73
2022/06/11 09:12:46;;;;;;;5.07;1.90;;;22.80;99.90;;;;;;4244357;27;21417;-73
2022/06/11 09:15:13;;;;;;;4.10;1.80;;;22.80;99.90;;;;;;4242475;27;20221;-73
2022/06/11 09:17:41;;;;;;;4.60;2.00;;;22.80;99.90;;;;;;4242375;27;20209;-73
2022/06/11 09:19:58;;;;;;;3.28;1.73;;;22.90;99.90;;;;;;4243634;27;20221;-73
2022/06/11 09:22:14;;;;;;;4.78;2.17;;;22.80;99.90;;;;;;4240151;27;20805;-73
2022/06/11 09:24:31;;;;;;;4.60;2.05;;;22.90;99.90;;;;;;4243510;27;20224;-73
2022/06/11 09:26:44;;;;;;;4.70;2.00;;;22.80;99.90;;;;;;4243761;27;20241;-73
2022/06/11 09:28:59;;;;;;;5.70;2.17;;;22.90;99.90;;;;;;4243624;27;20277;-73
2022/06/11 09:31:11;;;;;;;3.90;2.17;;;22.80;99.90;;;;;;4243962;27;20220;-73
2022/06/11 09:33:19;;;;;;;4.78;1.88;;;22.90;99.90;;;;;;4244290;27;20634;-73
2022/06/11 09:35:26;;;;;;;5.28;2.10;;;22.80;99.90;;;;;;4242396;27;20637;-73
2022/06/11 09:37:37;;;;;;;4.13;1.92;;;22.90;99.90;;;;;;4244243;27;20220;-73
2022/06/11 09:39:42;;;;;;;4.45;2.08;;;22.80;99.90;;;;;;4241687;27;20217;-73
2022/06/11 09:41:52;;;;;;;3.63;1.95;;;22.90;99.90;;;;;;4243104;27;20738;-73
2022/06/11 09:44:03;;;;;;;3.75;1.83;;;22.90;99.90;;;;;;4240210;27;20254;-75
2022/06/11 09:46:18;;;;;;;3.00;2.05;;;22.80;99.90;;;;;;4243511;27;20201;-73
2022/06/11 09:48:29;;;;;;;3.78;1.58;;;22.90;99.90;;;;;;4243857;27;20217;-73
2022/06/11 09:50:36;;;;;;;4.40;1.90;;;22.90;99.90;;;;;;4243990;27;20253;-73
2022/06/11 09:52:43;;;;;;;4.32;1.67;;;22.90;99.90;;;;;;4243588;27;20262;-73
2022/06/11 09:54:53;;;;;;;4.05;1.90;;;22.90;99.90;;;;;;4243488;27;20224;-73
2022/06/11 09:57:06;;;;;;;3.90;2.00;;;22.80;99.90;;;;;;4242670;27;20205;-73
2022/06/11 09:59:21;;;;;;;5.55;2.28;;;22.90;99.90;;;;;;4243779;27;21261;-73
2022/06/11 10:01:31;;;;;;;3.60;1.77;;;22.90;99.90;;;;;;4241745;27;21744;-73
2022/06/11 10:03:39;;;;;;;4.38;1.70;;;22.90;99.90;;;;;;4242647;27;20613;-73
2022/06/11 10:05:46;;;;;;;5.05;2.00;;;22.90;99.90;;;;;;4243781;27;20217;-73
2022/06/11 10:07:54;;;;;;;5.82;2.10;;;22.90;99.90;;;;;;4243468;27;20233;-73
2022/06/11 10:10:02;;;;;;;5.43;2.45;;;22.80;99.90;;;;;;4243486;27;20228;-73
2022/06/11 10:12:17;;;;;;;5.00;2.20;;;22.90;99.90;;;;;;4242197;27;20213;-73
2022/06/11 10:14:31;;;;;;;5.07;2.17;;;22.90;99.90;;;;;;4243198;27;20212;-73
2022/06/11 10:16:39;;;;;;;5.00;1.90;;;22.90;99.90;;;;;;4243138;27;20213;-73
2022/06/11 10:18:41;;;;;;;4.72;2.20;;;22.90;99.90;;;;;;4242536;27;20277;-73
2022/06/11 10:20:49;;;;;;;4.57;1.80;;;22.90;99.90;;;;;;4243184;27;20216;-73
2022/06/11 10:22:56;;;;;;;5.05;2.13;;;22.90;99.90;;;;;;4243067;27;20221;-74
2022/06/11 10:25:07;;;;;;;4.15;2.10;;;22.90;99.90;;;;;;4243750;27;20265;-74
2022/06/11 10:27:14;;;;;;;5.55;1.90;;;22.80;99.90;;;;;;4242930;27;20284;-73
2022/06/11 10:29:25;;;;;;;5.38;2.20;;;22.80;99.90;;;;;;4242344;27;20249;-73
2022/06/11 10:31:31;;;;;;;4.10;2.20;;;22.90;99.90;;;;;;4242332;27;20212;-73
2022/06/11 10:33:42;;;;;;;3.88;2.10;;;22.80;99.90;;;;;;4242963;27;20213;-73
2022/06/11 10:35:49;;;;;;;3.58;2.03;;;22.90;99.90;;;;;;4241631;27;20270;-73
2022/06/11 10:37:59;;;;;;;5.20;1.83;;;22.90;99.90;;;;;;4242889;27;20831;-73
2022/06/11 10:40:08;;;;;;;4.40;1.95;;;22.90;99.90;;;;;;4242803;27;20213;-73
2022/06/11 10:42:15;;;;;;;3.88;1.88;;;22.90;99.90;;;;;;4243351;27;20381;-73
2022/06/11 10:44:35;;;;;;;5.97;1.80;;;22.80;99.90;;;;;;4242942;27;20234;-73
2022/06/11 10:46:38;;;;;;;5.38;2.00;;;22.80;99.90;;;;;;4239642;27;20213;-73
2022/06/11 10:48:42;;;;;;;5.47;2.38;;;22.90;99.90;;;;;;4242029;27;20266;-73
2022/06/11 10:50:45;;;;;;;4.13;1.70;;;22.90;99.90;;;;;;4242935;27;20713;-73
2022/06/11 10:52:54;;;;;;;4.05;1.90;;;22.90;99.90;;;;;;4242010;27;20221;-73
2022/06/11 10:54:56;;;;;;;6.60;1.90;;;22.80;99.90;;;;;;4241611;27;20221;-73
2022/06/11 10:57:05;;;;;;;5.13;1.95;;;22.90;99.90;;;;;;4243199;27;20622;-73
2022/06/11 10:59:16;;;;;;;3.97;1.80;;;22.80;99.90;;;;;;4242906;28;20221;-73